sensor_id;sensor_type;location;lat;lon;timestamp;P1;durP1;ratioP1;P2;durP2;ratioP2
30677;SDS011;17437;47.188;8.896;2023-05-08T00:00:12;12.93;;;10.45;;
30677;SDS011;17437;47.188;8.896;2023-05-08T00:02:43;15.32;;;10.60;;
30677;SDS011;17437;47.188;8.896;2023-05-08T00:05:15;12.18;;;9.60;;
30677;SDS011;17437;47.188;8.896;2023-05-08T00:07:47;10.63;;;9.50;;
30677;SDS011;17437;47.188;8.896;2023-05-08T00:10:20;12.95;;;10.15;;
30677;SDS011;17437;47.188;8.896;2023-05-08T00:12:51;15.38;;;12.00;;
30677;SDS011;17437;47.188;8.896;2023-05-08T00:15:22;19.62;;;14.35;;
30677;SDS011;17437;47.188;8.896;2023-05-08T00:17:54;22.77;;;16.50;;
30677;SDS011;17437;47.188;8.896;2023-05-08T00:20:26;28.07;;;18.60;;
30677;SDS011;17437;47.188;8.896;2023-05-08T00:22:58;25.00;;;17.30;;
30677;SDS011;17437;47.188;8.896;2023-05-08T00:25:30;23.47;;;16.30;;
30677;SDS011;17437;47.188;8.896;2023-05-08T00:28:01;23.05;;;16.67;;
30677;SDS011;17437;47.188;8.896;2023-05-08T00:30:33;25.68;;;16.73;;
30677;SDS011;17437;47.188;8.896;2023-05-08T00:33:04;23.73;;;17.40;;
30677;SDS011;17437;47.188;8.896;2023-05-08T00:35:36;22.27;;;16.30;;
30677;SDS011;17437;47.188;8.896;2023-05-08T00:38:09;20.88;;;15.45;;
30677;SDS011;17437;47.188;8.896;2023-05-08T00:40:40;16.37;;;13.20;;
30677;SDS011;17437;47.188;8.896;2023-05-08T00:43:12;15.65;;;11.97;;
30677;SDS011;17437;47.188;8.896;2023-05-08T00:45:43;18.00;;;15.08;;
30677;SDS011;17437;47.188;8.896;2023-05-08T00:48:15;21.65;;;16.27;;
30677;SDS011;17437;47.188;8.896;2023-05-08T00:50:47;26.93;;;18.80;;
30677;SDS011;17437;47.188;8.896;2023-05-08T00:53:20;36.33;;;20.82;;
30677;SDS011;17437;47.188;8.896;2023-05-08T00:55:53;29.27;;;19.75;;
30677;SDS011;17437;47.188;8.896;2023-05-08T00:58:24;37.55;;;22.95;;
30677;SDS011;17437;47.188;8.896;2023-05-08T01:00:58;32.13;;;22.32;;
30677;SDS011;17437;47.188;8.896;2023-05-08T01:03:30;33.73;;;23.83;;
30677;SDS011;17437;47.188;8.896;2023-05-08T01:06:05;36.53;;;24.02;;
30677;SDS011;17437;47.188;8.896;2023-05-08T01:08:37;33.25;;;22.20;;
30677;SDS011;17437;47.188;8.896;2023-05-08T01:11:12;30.55;;;20.32;;
30677;SDS011;17437;47.188;8.896;2023-05-08T01:13:49;32.88;;;20.72;;
30677;SDS011;17437;47.188;8.896;2023-05-08T01:16:26;27.30;;;20.40;;
30677;SDS011;17437;47.188;8.896;2023-05-08T01:19:02;28.05;;;18.45;;
30677;SDS011;17437;47.188;8.896;2023-05-08T01:21:37;23.22;;;15.45;;
30677;SDS011;17437;47.188;8.896;2023-05-08T01:27:44;16.77;;;11.38;;
30677;SDS011;17437;47.188;8.896;2023-05-08T01:30:43;15.13;;;10.13;;
30677;SDS011;17437;47.188;8.896;2023-05-08T01:33:23;20.15;;;12.28;;
30677;SDS011;17437;47.188;8.896;2023-05-08T01:35:59;17.92;;;12.50;;
30677;SDS011;17437;47.188;8.896;2023-05-08T01:38:36;22.52;;;13.78;;
30677;SDS011;17437;47.188;8.896;2023-05-08T01:41:11;22.62;;;15.08;;
30677;SDS011;17437;47.188;8.896;2023-05-08T01:43:47;18.27;;;12.85;;
30677;SDS011;17437;47.188;8.896;2023-05-08T01:46:21;18.62;;;12.23;;
30677;SDS011;17437;47.188;8.896;2023-05-08T01:48:58;20.00;;;13.10;;
30677;SDS011;17437;47.188;8.896;2023-05-08T01:51:31;21.77;;;14.43;;
30677;SDS011;17437;47.188;8.896;2023-05-08T01:54:05;22.60;;;15.00;;
30677;SDS011;17437;47.188;8.896;2023-05-08T01:56:39;21.00;;;14.13;;
30677;SDS011;17437;47.188;8.896;2023-05-08T01:59:15;21.07;;;14.23;;
30677;SDS011;17437;47.188;8.896;2023-05-08T02:01:50;18.52;;;13.60;;
30677;SDS011;17437;47.188;8.896;2023-05-08T02:04:25;22.58;;;15.10;;
30677;SDS011;17437;47.188;8.896;2023-05-08T02:06:58;19.52;;;12.88;;
30677;SDS011;17437;47.188;8.896;2023-05-08T02:09:31;14.38;;;10.35;;
30677;SDS011;17437;47.188;8.896;2023-05-08T02:12:03;12.80;;;10.95;;
30677;SDS011;17437;47.188;8.896;2023-05-08T02:14:37;11.50;;;8.80;;
30677;SDS011;17437;47.188;8.896;2023-05-08T02:17:11;10.68;;;9.30;;
30677;SDS011;17437;47.188;8.896;2023-05-08T02:19:45;8.88;;;4.90;;
30677;SDS011;17437;47.188;8.896;2023-05-08T02:22:18;3.45;;;2.50;;
30677;SDS011;17437;47.188;8.896;2023-05-08T02:24:52;1.50;;;1.32;;
30677;SDS011;17437;47.188;8.896;2023-05-08T02:27:26;2.58;;;1.75;;
30677;SDS011;17437;47.188;8.896;2023-05-08T02:29:59;3.20;;;1.75;;
30677;SDS011;17437;47.188;8.896;2023-05-08T02:32:31;1.67;;;1.30;;
30677;SDS011;17437;47.188;8.896;2023-05-08T02:35:04;2.70;;;1.82;;
30677;SDS011;17437;47.188;8.896;2023-05-08T02:37:37;1.22;;;1.10;;
30677;SDS011;17437;47.188;8.896;2023-05-08T02:40:11;2.05;;;1.65;;
30677;SDS011;17437;47.188;8.896;2023-05-08T02:42:44;2.95;;;1.50;;
30677;SDS011;17437;47.188;8.896;2023-05-08T02:45:16;3.70;;;1.72;;
30677;SDS011;17437;47.188;8.896;2023-05-08T02:47:50;2.65;;;1.70;;
30677;SDS011;17437;47.188;8.896;2023-05-08T02:50:26;2.10;;;1.57;;
30677;SDS011;17437;47.188;8.896;2023-05-08T02:53:00;2.80;;;1.65;;
30677;SDS011;17437;47.188;8.896;2023-05-08T02:55:34;1.12;;;0.93;;
30677;SDS011;17437;47.188;8.896;2023-05-08T02:58:19;2.60;;;1.42;;
30677;SDS011;17437;47.188;8.896;2023-05-08T03:00:48;3.40;;;1.37;;
30677;SDS011;17437;47.188;8.896;2023-05-08T03:03:24;1.90;;;1.70;;
30677;SDS011;17437;47.188;8.896;2023-05-08T03:05:56;3.75;;;2.52;;
30677;SDS011;17437;47.188;8.896;2023-05-08T03:08:31;5.10;;;3.62;;
30677;SDS011;17437;47.188;8.896;2023-05-08T03:11:06;5.37;;;4.22;;
30677;SDS011;17437;47.188;8.896;2023-05-08T03:13:40;4.50;;;3.25;;
30677;SDS011;17437;47.188;8.896;2023-05-08T03:16:15;4.95;;;2.90;;
30677;SDS011;17437;47.188;8.896;2023-05-08T03:18:50;4.00;;;2.12;;
30677;SDS011;17437;47.188;8.896;2023-05-08T03:21:25;4.40;;;2.47;;
30677;SDS011;17437;47.188;8.896;2023-05-08T03:23:58;7.95;;;3.37;;
30677;SDS011;17437;47.188;8.896;2023-05-08T03:26:33;4.45;;;3.42;;
30677;SDS011;17437;47.188;8.896;2023-05-08T03:29:05;4.83;;;2.92;;
30677;SDS011;17437;47.188;8.896;2023-05-08T03:31:38;3.72;;;2.20;;
30677;SDS011;17437;47.188;8.896;2023-05-08T03:34:11;3.75;;;2.65;;
30677;SDS011;17437;47.188;8.896;2023-05-08T03:36:44;5.28;;;3.55;;
30677;SDS011;17437;47.188;8.896;2023-05-08T03:39:16;3.83;;;3.00;;
30677;SDS011;17437;47.188;8.896;2023-05-08T03:41:48;4.87;;;3.47;;
30677;SDS011;17437;47.188;8.896;2023-05-08T03:44:19;5.67;;;3.25;;
30677;SDS011;17437;47.188;8.896;2023-05-08T03:46:52;2.00;;;1.32;;
30677;SDS011;17437;47.188;8.896;2023-05-08T03:49:26;1.42;;;1.32;;
30677;SDS011;17437;47.188;8.896;2023-05-08T03:52:00;2.40;;;1.00;;
30677;SDS011;17437;47.188;8.896;2023-05-08T03:54:33;1.37;;;1.25;;
30677;SDS011;17437;47.188;8.896;2023-05-08T03:57:05;1.20;;;1.10;;
30677;SDS011;17437;47.188;8.896;2023-05-08T03:59:41;7.80;;;3.37;;
30677;SDS011;17437;47.188;8.896;2023-05-08T04:02:16;6.35;;;3.83;;
30677;SDS011;17437;47.188;8.896;2023-05-08T04:04:54;7.25;;;4.25;;
30677;SDS011;17437;47.188;8.896;2023-05-08T04:07:27;8.38;;;5.20;;
30677;SDS011;17437;47.188;8.896;2023-05-08T04:10:04;5.80;;;4.45;;
30677;SDS011;17437;47.188;8.896;2023-05-08T04:12:38;7.62;;;3.90;;
30677;SDS011;17437;47.188;8.896;2023-05-08T04:15:16;5.97;;;3.90;;
30677;SDS011;17437;47.188;8.896;2023-05-08T04:17:49;4.60;;;3.08;;
30677;SDS011;17437;47.188;8.896;2023-05-08T04:20:23;3.45;;;2.52;;
30677;SDS011;17437;47.188;8.896;2023-05-08T04:22:57;4.42;;;2.90;;
30677;SDS011;17437;47.188;8.896;2023-05-08T04:25:30;4.50;;;2.58;;
30677;SDS011;17437;47.188;8.896;2023-05-08T04:28:04;5.75;;;3.00;;
30677;SDS011;17437;47.188;8.896;2023-05-08T04:30:37;7.92;;;3.70;;
30677;SDS011;17437;47.188;8.896;2023-05-08T04:33:09;4.33;;;3.35;;
30677;SDS011;17437;47.188;8.896;2023-05-08T04:35:41;10.13;;;5.15;;
30677;SDS011;17437;47.188;8.896;2023-05-08T04:38:14;8.50;;;6.60;;
30677;SDS011;17437;47.188;8.896;2023-05-08T04:40:45;6.08;;;4.33;;
30677;SDS011;17437;47.188;8.896;2023-05-08T04:43:17;9.45;;;5.03;;
30677;SDS011;17437;47.188;8.896;2023-05-08T04:45:48;8.75;;;5.10;;
30677;SDS011;17437;47.188;8.896;2023-05-08T04:48:20;6.37;;;4.83;;
30677;SDS011;17437;47.188;8.896;2023-05-08T04:50:52;7.00;;;5.40;;
30677;SDS011;17437;47.188;8.896;2023-05-08T04:53:24;9.23;;;6.47;;
30677;SDS011;17437;47.188;8.896;2023-05-08T04:55:56;9.50;;;7.30;;
30677;SDS011;17437;47.188;8.896;2023-05-08T04:58:27;11.65;;;6.85;;
30677;SDS011;17437;47.188;8.896;2023-05-08T05:01:01;9.33;;;6.28;;
30677;SDS011;17437;47.188;8.896;2023-05-08T05:03:33;15.98;;;14.58;;
30677;SDS011;17437;47.188;8.896;2023-05-08T05:06:05;9.25;;;8.10;;
30677;SDS011;17437;47.188;8.896;2023-05-08T05:08:36;8.78;;;6.55;;
30677;SDS011;17437;47.188;8.896;2023-05-08T05:11:08;7.25;;;5.08;;
30677;SDS011;17437;47.188;8.896;2023-05-08T05:13:39;10.70;;;6.60;;
30677;SDS011;17437;47.188;8.896;2023-05-08T05:16:11;10.75;;;9.15;;
30677;SDS011;17437;47.188;8.896;2023-05-08T05:18:43;8.78;;;6.62;;
30677;SDS011;17437;47.188;8.896;2023-05-08T05:21:14;20.65;;;8.68;;
30677;SDS011;17437;47.188;8.896;2023-05-08T05:23:46;10.78;;;7.50;;
30677;SDS011;17437;47.188;8.896;2023-05-08T05:26:17;11.22;;;7.60;;
30677;SDS011;17437;47.188;8.896;2023-05-08T05:28:50;12.98;;;8.75;;
30677;SDS011;17437;47.188;8.896;2023-05-08T05:31:21;15.10;;;9.40;;
30677;SDS011;17437;47.188;8.896;2023-05-08T05:33:53;13.48;;;8.40;;
30677;SDS011;17437;47.188;8.896;2023-05-08T05:36:25;11.60;;;8.30;;
30677;SDS011;17437;47.188;8.896;2023-05-08T05:38:57;11.55;;;7.60;;
30677;SDS011;17437;47.188;8.896;2023-05-08T05:41:29;11.40;;;7.42;;
30677;SDS011;17437;47.188;8.896;2023-05-08T05:44:00;10.30;;;7.72;;
30677;SDS011;17437;47.188;8.896;2023-05-08T05:46:32;10.82;;;7.90;;
30677;SDS011;17437;47.188;8.896;2023-05-08T05:49:03;13.98;;;8.53;;
30677;SDS011;17437;47.188;8.896;2023-05-08T05:51:35;12.25;;;7.40;;
30677;SDS011;17437;47.188;8.896;2023-05-08T05:54:06;13.22;;;8.75;;
30677;SDS011;17437;47.188;8.896;2023-05-08T05:56:38;11.18;;;7.92;;
30677;SDS011;17437;47.188;8.896;2023-05-08T05:59:10;9.23;;;7.00;;
30677;SDS011;17437;47.188;8.896;2023-05-08T06:01:41;10.98;;;8.03;;
30677;SDS011;17437;47.188;8.896;2023-05-08T06:04:13;9.58;;;7.20;;
30677;SDS011;17437;47.188;8.896;2023-05-08T06:06:45;7.97;;;6.53;;
30677;SDS011;17437;47.188;8.896;2023-05-08T06:09:16;9.45;;;7.10;;
30677;SDS011;17437;47.188;8.896;2023-05-08T06:11:48;11.33;;;7.85;;
30677;SDS011;17437;47.188;8.896;2023-05-08T06:14:20;5.97;;;4.60;;
30677;SDS011;17437;47.188;8.896;2023-05-08T06:16:51;9.78;;;8.08;;
30677;SDS011;17437;47.188;8.896;2023-05-08T06:19:23;8.38;;;6.92;;
30677;SDS011;17437;47.188;8.896;2023-05-08T06:21:59;8.28;;;6.50;;
30677;SDS011;17437;47.188;8.896;2023-05-08T06:24:32;6.72;;;6.12;;
30677;SDS011;17437;47.188;8.896;2023-05-08T06:27:07;8.38;;;7.58;;
30677;SDS011;17437;47.188;8.896;2023-05-08T06:29:38;8.70;;;7.08;;
30677;SDS011;17437;47.188;8.896;2023-05-08T06:32:10;5.22;;;4.28;;
30677;SDS011;17437;47.188;8.896;2023-05-08T06:34:41;6.45;;;4.40;;
30677;SDS011;17437;47.188;8.896;2023-05-08T06:37:13;4.62;;;3.42;;
30677;SDS011;17437;47.188;8.896;2023-05-08T06:39:44;4.87;;;4.03;;
30677;SDS011;17437;47.188;8.896;2023-05-08T06:42:18;3.42;;;3.10;;
30677;SDS011;17437;47.188;8.896;2023-05-08T06:44:49;4.33;;;3.30;;
30677;SDS011;17437;47.188;8.896;2023-05-08T06:47:21;9.63;;;4.92;;
30677;SDS011;17437;47.188;8.896;2023-05-08T06:49:55;5.17;;;4.45;;
30677;SDS011;17437;47.188;8.896;2023-05-08T06:52:26;6.58;;;5.15;;
30677;SDS011;17437;47.188;8.896;2023-05-08T06:54:58;9.83;;;5.70;;
30677;SDS011;17437;47.188;8.896;2023-05-08T06:57:30;8.05;;;5.20;;
30677;SDS011;17437;47.188;8.896;2023-05-08T07:00:01;5.12;;;4.28;;
30677;SDS011;17437;47.188;8.896;2023-05-08T07:02:34;6.70;;;5.35;;
30677;SDS011;17437;47.188;8.896;2023-05-08T07:05:06;5.12;;;4.62;;
30677;SDS011;17437;47.188;8.896;2023-05-08T07:07:39;4.65;;;4.12;;
30677;SDS011;17437;47.188;8.896;2023-05-08T07:10:11;6.83;;;4.15;;
30677;SDS011;17437;47.188;8.896;2023-05-08T07:12:44;6.33;;;3.70;;
30677;SDS011;17437;47.188;8.896;2023-05-08T07:15:16;6.03;;;3.37;;
30677;SDS011;17437;47.188;8.896;2023-05-08T07:17:49;6.60;;;3.22;;
30677;SDS011;17437;47.188;8.896;2023-05-08T07:20:21;7.83;;;5.17;;
30677;SDS011;17437;47.188;8.896;2023-05-08T07:22:53;6.50;;;3.22;;
30677;SDS011;17437;47.188;8.896;2023-05-08T07:25:24;3.60;;;3.05;;
30677;SDS011;17437;47.188;8.896;2023-05-08T07:27:56;3.50;;;3.20;;
30677;SDS011;17437;47.188;8.896;2023-05-08T07:30:29;6.15;;;3.17;;
30677;SDS011;17437;47.188;8.896;2023-05-08T07:33:01;4.05;;;3.55;;
30677;SDS011;17437;47.188;8.896;2023-05-08T07:35:33;2.70;;;1.80;;
30677;SDS011;17437;47.188;8.896;2023-05-08T07:38:04;6.75;;;2.70;;
30677;SDS011;17437;47.188;8.896;2023-05-08T07:40:35;3.12;;;2.30;;
30677;SDS011;17437;47.188;8.896;2023-05-08T07:43:06;3.85;;;2.08;;
30677;SDS011;17437;47.188;8.896;2023-05-08T07:45:38;2.42;;;2.10;;
30677;SDS011;17437;47.188;8.896;2023-05-08T07:48:10;2.95;;;2.33;;
30677;SDS011;17437;47.188;8.896;2023-05-08T07:50:41;2.92;;;2.10;;
30677;SDS011;17437;47.188;8.896;2023-05-08T07:53:13;3.40;;;2.00;;
30677;SDS011;17437;47.188;8.896;2023-05-08T07:55:49;5.15;;;2.33;;
30677;SDS011;17437;47.188;8.896;2023-05-08T07:58:21;2.37;;;1.77;;
30677;SDS011;17437;47.188;8.896;2023-05-08T08:00:53;1.92;;;1.72;;
30677;SDS011;17437;47.188;8.896;2023-05-08T08:03:24;3.35;;;1.90;;
30677;SDS011;17437;47.188;8.896;2023-05-08T08:05:56;2.80;;;1.90;;
30677;SDS011;17437;47.188;8.896;2023-05-08T08:08:28;3.87;;;2.25;;
30677;SDS011;17437;47.188;8.896;2023-05-08T08:10:59;4.00;;;2.12;;
30677;SDS011;17437;47.188;8.896;2023-05-08T08:13:32;2.10;;;1.52;;
30677;SDS011;17437;47.188;8.896;2023-05-08T08:16:04;3.80;;;2.27;;
30677;SDS011;17437;47.188;8.896;2023-05-08T08:18:36;2.10;;;1.90;;
30677;SDS011;17437;47.188;8.896;2023-05-08T08:21:08;3.00;;;1.50;;
30677;SDS011;17437;47.188;8.896;2023-05-08T08:23:40;2.33;;;2.17;;
30677;SDS011;17437;47.188;8.896;2023-05-08T08:26:11;5.22;;;1.80;;
30677;SDS011;17437;47.188;8.896;2023-05-08T08:28:43;6.33;;;1.92;;
30677;SDS011;17437;47.188;8.896;2023-05-08T08:31:14;1.77;;;1.50;;
30677;SDS011;17437;47.188;8.896;2023-05-08T08:33:47;2.92;;;2.65;;
30677;SDS011;17437;47.188;8.896;2023-05-08T08:36:19;2.85;;;1.82;;
30677;SDS011;17437;47.188;8.896;2023-05-08T08:38:50;2.83;;;1.50;;
30677;SDS011;17437;47.188;8.896;2023-05-08T08:41:22;2.55;;;1.77;;
30677;SDS011;17437;47.188;8.896;2023-05-08T08:43:56;2.72;;;1.77;;
30677;SDS011;17437;47.188;8.896;2023-05-08T08:46:28;5.50;;;1.70;;
30677;SDS011;17437;47.188;8.896;2023-05-08T08:49:02;4.85;;;1.35;;
30677;SDS011;17437;47.188;8.896;2023-05-08T08:51:48;2.25;;;1.40;;
30677;SDS011;17437;47.188;8.896;2023-05-08T08:54:11;2.60;;;1.40;;
30677;SDS011;17437;47.188;8.896;2023-05-08T08:56:45;4.08;;;1.35;;
30677;SDS011;17437;47.188;8.896;2023-05-08T08:59:19;2.12;;;1.07;;
30677;SDS011;17437;47.188;8.896;2023-05-08T09:01:54;2.55;;;0.90;;
30677;SDS011;17437;47.188;8.896;2023-05-08T09:04:27;2.00;;;0.78;;
30677;SDS011;17437;47.188;8.896;2023-05-08T09:06:59;0.82;;;0.78;;
30677;SDS011;17437;47.188;8.896;2023-05-08T09:09:33;2.12;;;1.40;;
30677;SDS011;17437;47.188;8.896;2023-05-08T09:12:08;1.40;;;1.20;;
30677;SDS011;17437;47.188;8.896;2023-05-08T09:14:41;3.47;;;1.40;;
30677;SDS011;17437;47.188;8.896;2023-05-08T09:17:13;1.50;;;1.02;;
30677;SDS011;17437;47.188;8.896;2023-05-08T09:19:45;7.62;;;3.17;;
30677;SDS011;17437;47.188;8.896;2023-05-08T09:22:18;1.02;;;0.80;;
30677;SDS011;17437;47.188;8.896;2023-05-08T09:24:55;4.72;;;1.10;;
30677;SDS011;17437;47.188;8.896;2023-05-08T09:27:28;3.62;;;1.30;;
30677;SDS011;17437;47.188;8.896;2023-05-08T09:30:02;1.45;;;1.02;;
30677;SDS011;17437;47.188;8.896;2023-05-08T09:32:35;0.98;;;0.88;;
30677;SDS011;17437;47.188;8.896;2023-05-08T09:35:09;2.60;;;1.07;;
30677;SDS011;17437;47.188;8.896;2023-05-08T09:37:42;0.90;;;0.90;;
30677;SDS011;17437;47.188;8.896;2023-05-08T09:40:15;1.20;;;0.93;;
30677;SDS011;17437;47.188;8.896;2023-05-08T09:42:48;0.70;;;0.65;;
30677;SDS011;17437;47.188;8.896;2023-05-08T09:45:27;0.95;;;0.90;;
30677;SDS011;17437;47.188;8.896;2023-05-08T09:48:00;1.42;;;1.25;;
30677;SDS011;17437;47.188;8.896;2023-05-08T09:50:32;1.05;;;0.60;;
30677;SDS011;17437;47.188;8.896;2023-05-08T09:53:03;2.55;;;0.80;;
30677;SDS011;17437;47.188;8.896;2023-05-08T09:55:45;1.45;;;1.35;;
30677;SDS011;17437;47.188;8.896;2023-05-08T09:58:17;1.17;;;0.57;;
30677;SDS011;17437;47.188;8.896;2023-05-08T10:00:50;2.05;;;0.60;;
30677;SDS011;17437;47.188;8.896;2023-05-08T10:03:22;0.70;;;0.40;;
30677;SDS011;17437;47.188;8.896;2023-05-08T10:06:04;1.02;;;0.50;;
30677;SDS011;17437;47.188;8.896;2023-05-08T10:08:41;0.80;;;0.80;;
30677;SDS011;17437;47.188;8.896;2023-05-08T10:11:15;1.05;;;0.68;;
30677;SDS011;17437;47.188;8.896;2023-05-08T10:13:49;1.55;;;0.68;;
30677;SDS011;17437;47.188;8.896;2023-05-08T10:16:21;0.35;;;0.35;;
30677;SDS011;17437;47.188;8.896;2023-05-08T10:18:54;0.15;;;0.10;;
30677;SDS011;17437;47.188;8.896;2023-05-08T10:21:30;1.65;;;0.30;;
30677;SDS011;17437;47.188;8.896;2023-05-08T10:24:05;0.68;;;0.42;;
30677;SDS011;17437;47.188;8.896;2023-05-08T10:26:39;1.47;;;0.30;;
30677;SDS011;17437;47.188;8.896;2023-05-08T10:29:17;0.33;;;0.20;;
30677;SDS011;17437;47.188;8.896;2023-05-08T10:31:53;0.50;;;0.20;;
30677;SDS011;17437;47.188;8.896;2023-05-08T10:34:26;0.40;;;0.40;;
30677;SDS011;17437;47.188;8.896;2023-05-08T10:37:00;0.28;;;0.28;;
30677;SDS011;17437;47.188;8.896;2023-05-08T10:39:32;1.37;;;0.57;;
30677;SDS011;17437;47.188;8.896;2023-05-08T10:42:05;0.93;;;0.40;;
30677;SDS011;17437;47.188;8.896;2023-05-08T10:44:36;0.40;;;0.30;;
30677;SDS011;17437;47.188;8.896;2023-05-08T10:47:10;1.57;;;0.93;;
30677;SDS011;17437;47.188;8.896;2023-05-08T10:49:46;1.85;;;1.72;;
30677;SDS011;17437;47.188;8.896;2023-05-08T10:52:22;0.82;;;0.42;;
30677;SDS011;17437;47.188;8.896;2023-05-08T10:55:04;0.30;;;0.30;;
30677;SDS011;17437;47.188;8.896;2023-05-08T11:03:37;0.60;;;0.40;;
30677;SDS011;17437;47.188;8.896;2023-05-08T11:06:11;3.27;;;0.60;;
30677;SDS011;17437;47.188;8.896;2023-05-08T11:08:44;1.40;;;0.50;;
30677;SDS011;17437;47.188;8.896;2023-05-08T11:11:22;0.30;;;0.30;;
30677;SDS011;17437;47.188;8.896;2023-05-08T11:13:57;1.95;;;0.40;;
30677;SDS011;17437;47.188;8.896;2023-05-08T11:19:53;0.30;;;0.30;;
30677;SDS011;17437;47.188;8.896;2023-05-08T11:22:25;1.07;;;0.20;;
30677;SDS011;17437;47.188;8.896;2023-05-08T11:25:00;0.62;;;0.35;;
30677;SDS011;17437;47.188;8.896;2023-05-08T11:30:51;0.68;;;0.50;;
30677;SDS011;17437;47.188;8.896;2023-05-08T11:33:29;1.57;;;0.20;;
30677;SDS011;17437;47.188;8.896;2023-05-08T11:36:10;0.55;;;0.25;;
30677;SDS011;17437;47.188;8.896;2023-05-08T11:38:43;0.37;;;0.37;;
30677;SDS011;17437;47.188;8.896;2023-05-08T11:41:26;0.10;;;0.10;;
30677;SDS011;17437;47.188;8.896;2023-05-08T11:44:02;0.62;;;0.20;;
30677;SDS011;17437;47.188;8.896;2023-05-08T11:46:45;0.35;;;0.20;;
30677;SDS011;17437;47.188;8.896;2023-05-08T11:49:19;0.20;;;0.13;;
30677;SDS011;17437;47.188;8.896;2023-05-08T11:51:53;0.20;;;0.20;;
30677;SDS011;17437;47.188;8.896;2023-05-08T11:54:29;18.82;;;2.70;;
30677;SDS011;17437;47.188;8.896;2023-05-08T11:57:00;0.30;;;0.10;;
30677;SDS011;17437;47.188;8.896;2023-05-08T11:59:34;0.62;;;0.30;;
30677;SDS011;17437;47.188;8.896;2023-05-08T12:02:06;0.28;;;0.13;;
30677;SDS011;17437;47.188;8.896;2023-05-08T12:04:44;0.20;;;0.20;;
30677;SDS011;17437;47.188;8.896;2023-05-08T12:07:16;0.33;;;0.20;;
30677;SDS011;17437;47.188;8.896;2023-05-08T12:09:48;0.10;;;0.10;;
30677;SDS011;17437;47.188;8.896;2023-05-08T12:12:20;1.05;;;0.25;;
30677;SDS011;17437;47.188;8.896;2023-05-08T12:14:52;0.35;;;0.10;;
30677;SDS011;17437;47.188;8.896;2023-05-08T12:17:24;0.68;;;0.57;;
30677;SDS011;17437;47.188;8.896;2023-05-08T12:19:55;0.20;;;0.20;;
30677;SDS011;17437;47.188;8.896;2023-05-08T12:22:30;0.20;;;0.10;;
30677;SDS011;17437;47.188;8.896;2023-05-08T12:25:02;0.23;;;0.20;;
30677;SDS011;17437;47.188;8.896;2023-05-08T12:27:35;0.15;;;0.15;;
30677;SDS011;17437;47.188;8.896;2023-05-08T12:30:08;0.45;;;0.37;;
30677;SDS011;17437;47.188;8.896;2023-05-08T12:32:42;0.75;;;0.30;;
30677;SDS011;17437;47.188;8.896;2023-05-08T12:35:15;2.40;;;1.52;;
30677;SDS011;17437;47.188;8.896;2023-05-08T12:37:49;0.47;;;0.20;;
30677;SDS011;17437;47.188;8.896;2023-05-08T12:40:25;0.25;;;0.20;;
30677;SDS011;17437;47.188;8.896;2023-05-08T12:42:59;0.10;;;0.10;;
30677;SDS011;17437;47.188;8.896;2023-05-08T12:45:32;1.87;;;0.62;;
30677;SDS011;17437;47.188;8.896;2023-05-08T12:48:07;0.72;;;0.20;;
30677;SDS011;17437;47.188;8.896;2023-05-08T12:50:41;0.72;;;0.33;;
30677;SDS011;17437;47.188;8.896;2023-05-08T12:53:14;0.10;;;0.10;;
30677;SDS011;17437;47.188;8.896;2023-05-08T12:55:50;1.17;;;0.20;;
30677;SDS011;17437;47.188;8.896;2023-05-08T12:58:24;0.37;;;0.35;;
30677;SDS011;17437;47.188;8.896;2023-05-08T13:01:04;0.30;;;0.30;;
30677;SDS011;17437;47.188;8.896;2023-05-08T13:03:40;0.20;;;0.20;;
30677;SDS011;17437;47.188;8.896;2023-05-08T13:06:19;0.70;;;0.30;;
30677;SDS011;17437;47.188;8.896;2023-05-08T13:08:52;0.40;;;0.40;;
30677;SDS011;17437;47.188;8.896;2023-05-08T13:11:30;0.90;;;0.25;;
30677;SDS011;17437;47.188;8.896;2023-05-08T13:14:02;0.85;;;0.20;;
30677;SDS011;17437;47.188;8.896;2023-05-08T13:16:41;2.02;;;0.40;;
30677;SDS011;17437;47.188;8.896;2023-05-08T13:19:13;0.78;;;0.78;;
30677;SDS011;17437;47.188;8.896;2023-05-08T13:21:45;1.05;;;0.65;;
30677;SDS011;17437;47.188;8.896;2023-05-08T13:24:17;0.60;;;0.60;;
30677;SDS011;17437;47.188;8.896;2023-05-08T13:26:48;1.32;;;0.60;;
30677;SDS011;17437;47.188;8.896;2023-05-08T13:29:20;0.72;;;0.72;;
30677;SDS011;17437;47.188;8.896;2023-05-08T13:31:52;1.20;;;1.10;;
30677;SDS011;17437;47.188;8.896;2023-05-08T13:34:23;1.20;;;0.70;;
30677;SDS011;17437;47.188;8.896;2023-05-08T13:36:55;2.95;;;1.65;;
30677;SDS011;17437;47.188;8.896;2023-05-08T13:39:26;2.55;;;1.15;;
30677;SDS011;17437;47.188;8.896;2023-05-08T13:42:00;0.93;;;0.70;;
30677;SDS011;17437;47.188;8.896;2023-05-08T13:44:31;0.75;;;0.75;;
30677;SDS011;17437;47.188;8.896;2023-05-08T13:47:03;3.52;;;1.05;;
30677;SDS011;17437;47.188;8.896;2023-05-08T13:49:34;1.80;;;0.88;;
30677;SDS011;17437;47.188;8.896;2023-05-08T13:52:06;1.95;;;0.90;;
30677;SDS011;17437;47.188;8.896;2023-05-08T13:54:37;0.65;;;0.65;;
30677;SDS011;17437;47.188;8.896;2023-05-08T13:57:08;0.70;;;0.65;;
30677;SDS011;17437;47.188;8.896;2023-05-08T13:59:40;2.15;;;0.90;;
30677;SDS011;17437;47.188;8.896;2023-05-08T14:02:12;0.55;;;0.55;;
30677;SDS011;17437;47.188;8.896;2023-05-08T14:04:44;0.40;;;0.40;;
30677;SDS011;17437;47.188;8.896;2023-05-08T14:07:15;1.85;;;0.75;;
30677;SDS011;17437;47.188;8.896;2023-05-08T14:09:47;2.90;;;0.55;;
30677;SDS011;17437;47.188;8.896;2023-05-08T14:12:18;2.05;;;0.80;;
30677;SDS011;17437;47.188;8.896;2023-05-08T14:14:50;3.10;;;0.62;;
30677;SDS011;17437;47.188;8.896;2023-05-08T14:17:21;1.60;;;0.50;;
30677;SDS011;17437;47.188;8.896;2023-05-08T14:19:54;1.42;;;0.80;;
30677;SDS011;17437;47.188;8.896;2023-05-08T14:22:25;0.50;;;0.33;;
30677;SDS011;17437;47.188;8.896;2023-05-08T14:24:57;0.68;;;0.60;;
30677;SDS011;17437;47.188;8.896;2023-05-08T14:27:28;1.25;;;0.50;;
30677;SDS011;17437;47.188;8.896;2023-05-08T14:30:01;0.60;;;0.40;;
30677;SDS011;17437;47.188;8.896;2023-05-08T14:32:34;1.75;;;1.10;;
30677;SDS011;17437;47.188;8.896;2023-05-08T14:35:06;0.85;;;0.53;;
30677;SDS011;17437;47.188;8.896;2023-05-08T14:37:39;1.70;;;0.75;;
30677;SDS011;17437;47.188;8.896;2023-05-08T14:40:11;0.68;;;0.60;;
30677;SDS011;17437;47.188;8.896;2023-05-08T14:42:42;0.57;;;0.57;;
30677;SDS011;17437;47.188;8.896;2023-05-08T14:45:14;2.47;;;0.90;;
30677;SDS011;17437;47.188;8.896;2023-05-08T14:47:47;0.62;;;0.53;;
30677;SDS011;17437;47.188;8.896;2023-05-08T14:53:08;2.75;;;0.70;;
30677;SDS011;17437;47.188;8.896;2023-05-08T14:55:40;3.92;;;0.70;;
30677;SDS011;17437;47.188;8.896;2023-05-08T14:58:12;1.60;;;0.65;;
30677;SDS011;17437;47.188;8.896;2023-05-08T15:00:44;1.30;;;0.85;;
30677;SDS011;17437;47.188;8.896;2023-05-08T15:03:15;2.70;;;0.88;;
30677;SDS011;17437;47.188;8.896;2023-05-08T15:05:47;2.10;;;0.82;;
30677;SDS011;17437;47.188;8.896;2023-05-08T15:08:19;7.50;;;5.22;;
30677;SDS011;17437;47.188;8.896;2023-05-08T15:10:50;0.65;;;0.60;;
30677;SDS011;17437;47.188;8.896;2023-05-08T15:13:23;1.70;;;0.80;;
30677;SDS011;17437;47.188;8.896;2023-05-08T15:15:55;0.93;;;0.65;;
30677;SDS011;17437;47.188;8.896;2023-05-08T15:18:27;1.45;;;0.90;;
30677;SDS011;17437;47.188;8.896;2023-05-08T15:20:59;0.88;;;0.60;;
30677;SDS011;17437;47.188;8.896;2023-05-08T15:23:30;1.95;;;0.65;;
30677;SDS011;17437;47.188;8.896;2023-05-08T15:26:02;1.17;;;0.70;;
30677;SDS011;17437;47.188;8.896;2023-05-08T15:28:33;1.95;;;0.98;;
30677;SDS011;17437;47.188;8.896;2023-05-08T15:31:06;1.42;;;1.32;;
30677;SDS011;17437;47.188;8.896;2023-05-08T15:33:37;0.82;;;0.70;;
30677;SDS011;17437;47.188;8.896;2023-05-08T15:36:11;2.02;;;0.80;;